Time;durP1;ratioP1;P1;durP2;ratioP2;P2;SDS_P1;SDS_P2;PMS_P1;PMS_P2;Temp;Humidity;BMP_temperature;BMP_pressure;BME280_temperature;BME280_humidity;BME280_pressure;Samples;Min_cycle;Max_cycle;Signal;HPM_P1;HPM_P2
2022/10/29 00:00:52;;;;;;;10.13;3.33;;;;;;;19.71;100.00;97102.66;5097330;28;20468;-43
2022/10/29 00:03:21;;;;;;;7.18;2.63;;;;;;;19.51;100.00;97112.22;5099720;28;20063;-46
2022/10/29 00:05:59;;;;;;;6.78;3.03;;;;;;;19.53;100.00;97108.34;5100472;28;20079;-45
2022/10/29 00:08:28;;;;;;;6.97;2.67;;;;;;;19.41;100.00;97120.53;5092872;28;20084;-45
2022/10/29 00:10:57;;;;;;;8.20;2.78;;;;;;;19.34;100.00;97125.78;5103957;28;20522;-43
2022/10/29 00:13:25;;;;;;;7.35;2.90;;;;;;;19.34;100.00;97119.59;5098887;28;20085;-44
2022/10/29 00:15:53;;;;;;;6.47;3.00;;;;;;;19.31;100.00;97134.19;5097545;28;20075;-43
2022/10/29 00:18:21;;;;;;;6.03;2.90;;;;;;;18.90;100.00;97125.72;5084075;28;20068;-45
2022/10/29 00:20:50;;;;;;;8.48;2.85;;;;;;;18.40;100.00;97127.06;5097640;28;20086;-43
2022/10/29 00:23:19;;;;;;;8.80;2.80;;;;;;;17.69;100.00;97128.94;5094564;28;20082;-47
2022/10/29 00:25:47;;;;;;;8.73;2.60;;;;;;;17.89;100.00;97118.69;5099280;28;20091;-50
2022/10/29 00:28:16;;;;;;;13.27;2.70;;;;;;;18.57;100.00;97109.91;5094375;28;20593;-46
2022/10/29 00:30:44;;;;;;;5.50;2.78;;;;;;;18.93;100.00;97112.81;5098657;28;20084;-44
2022/10/29 00:33:12;;;;;;;7.57;3.05;;;;;;;19.13;100.00;97118.50;5101176;28;20075;-44
2022/10/29 00:35:40;;;;;;;8.02;2.90;;;;;;;19.28;100.00;97117.66;5100900;28;20075;-42
2022/10/29 00:38:09;;;;;;;6.05;2.53;;;;;;;19.34;100.00;97116.91;5100297;28;20078;-43
2022/10/29 00:40:38;;;;;;;6.32;2.60;;;;;;;19.53;100.00;97118.22;5096485;28;20080;-47
2022/10/29 00:43:13;;;;;;;11.40;3.43;;;;;;;19.65;100.00;97114.94;5099947;28;20482;-46
2022/10/29 00:45:44;;;;;;;6.82;2.60;;;;;;;19.59;100.00;97117.50;5096530;28;20063;-47
2022/10/29 00:48:12;;;;;;;9.02;2.90;;;;;;;19.59;100.00;97118.31;5098792;28;20090;-47
2022/10/29 00:50:41;;;;;;;13.32;3.28;;;;;;;19.68;100.00;97117.25;5096958;28;20533;-43
2022/10/29 00:53:09;;;;;;;7.05;2.95;;;;;;;19.77;100.00;97123.31;5099347;28;20071;-48
2022/10/29 00:55:38;;;;;;;6.43;2.63;;;;;;;19.82;100.00;97117.38;5095072;28;20087;-48
2022/10/29 00:58:07;;;;;;;9.97;3.47;;;;;;;19.78;100.00;97119.63;5099778;28;20090;-46
2022/10/29 01:00:37;;;;;;;9.02;3.90;;;;;;;19.70;100.00;97116.22;5099330;28;20083;-46
2022/10/29 01:03:05;;;;;;;8.48;2.97;;;;;;;19.69;100.00;97120.75;5098677;28;20087;-45
2022/10/29 01:05:34;;;;;;;7.47;3.03;;;;;;;19.66;100.00;97113.91;5090628;28;20079;-44
2022/10/29 01:08:03;;;;;;;8.10;3.70;;;;;;;19.61;100.00;97124.31;5095285;28;20090;-48
2022/10/29 01:10:43;;;;;;;5.90;3.35;;;;;;;19.53;100.00;97128.94;5100512;28;20486;-48
2022/10/29 01:13:24;;;;;;;7.15;2.85;;;;;;;19.34;100.00;97131.13;5094712;28;20483;-50
2022/10/29 01:15:58;;;;;;;5.47;2.90;;;;;;;19.30;100.00;97126.31;5100424;28;20087;-48
2022/10/29 01:18:35;;;;;;;9.35;2.90;;;;;;;19.31;100.00;97122.66;5096583;28;20079;-44
2022/10/29 01:21:19;;;;;;;5.43;3.00;;;;;;;19.29;100.00;97127.34;5101029;28;20139;-45
2022/10/29 01:24:17;;;;;;;6.53;3.22;;;;;;;19.17;100.00;97129.66;5097640;28;20488;-46
2022/10/29 01:27:20;;;;;;;7.72;3.65;;;;;;;19.16;100.00;97128.78;5100856;28;20552;-49
2022/10/29 01:30:04;;;;;;;6.05;3.00;;;;;;;19.23;100.00;97134.25;5098691;28;20470;-45
2022/10/29 01:32:41;;;;;;;7.30;3.00;;;;;;;19.00;100.00;97133.50;5099709;28;20083;-50
2022/10/29 01:35:14;;;;;;;6.68;3.15;;;;;;;19.01;100.00;97130.63;5104269;28;20071;-43
2022/10/29 01:37:48;;;;;;;5.93;2.92;;;;;;;19.03;100.00;97119.72;5109944;28;20091;-46
2022/10/29 01:40:21;;;;;;;7.57;3.40;;;;;;;18.98;100.00;97118.44;5103284;28;20087;-45
2022/10/29 01:42:53;;;;;;;8.90;2.95;;;;;;;18.98;100.00;97115.75;5100858;28;20477;-46
2022/10/29 01:45:26;;;;;;;10.25;2.88;;;;;;;19.08;100.00;97112.00;5099796;28;20083;-49
2022/10/29 01:47:59;;;;;;;5.82;2.78;;;;;;;18.90;100.00;97104.34;5103229;28;20082;-44
2022/10/29 01:50:27;;;;;;;7.47;3.08;;;;;;;19.01;100.00;97113.75;5101343;28;20079;-46
2022/10/29 01:52:56;;;;;;;7.57;2.88;;;;;;;19.07;100.00;97111.19;5101077;28;20093;-44
2022/10/29 01:55:30;;;;;;;8.27;2.80;;;;;;;19.16;100.00;97109.25;5102030;28;20067;-47
2022/10/29 01:57:59;;;;;;;7.53;3.28;;;;;;;19.09;100.00;97111.81;5104465;28;20079;-46
2022/10/29 02:00:27;;;;;;;8.70;3.10;;;;;;;19.08;100.00;97101.31;5099469;28;20094;-45
2022/10/29 02:03:12;;;;;;;5.53;3.03;;;;;;;19.18;100.00;97110.72;5102711;28;20548;-50
2022/10/29 02:05:49;;;;;;;8.10;2.80;;;;;;;19.12;100.00;97108.78;5102303;28;20090;-45
2022/10/29 02:08:21;;;;;;;10.60;2.75;;;;;;;19.10;100.00;97105.47;5104041;28;20145;-47
2022/10/29 02:10:54;;;;;;;7.90;2.70;;;;;;;19.15;100.00;97105.75;5104819;28;20086;-44
2022/10/29 02:13:28;;;;;;;10.60;3.50;;;;;;;19.17;100.00;97100.22;5099792;28;20522;-52
2022/10/29 02:15:57;;;;;;;7.88;3.13;;;;;;;19.19;100.00;97098.19;5103413;28;20083;-46
2022/10/29 02:18:27;;;;;;;12.93;3.13;;;;;;;19.11;100.00;97100.97;5100845;28;20070;-49
2022/10/29 02:20:55;;;;;;;6.73;2.70;;;;;;;19.25;100.00;97107.34;5100559;28;20068;-44
2022/10/29 02:23:23;;;;;;;7.47;3.22;;;;;;;19.24;100.00;97100.34;5103153;28;21092;-50
2022/10/29 02:25:51;;;;;;;8.13;2.78;;;;;;;19.27;100.00;97100.81;5102827;28;20555;-50
2022/10/29 02:28:20;;;;;;;10.82;3.00;;;;;;;19.15;100.00;97100.41;5104757;28;20071;-50
2022/10/29 02:30:48;;;;;;;7.18;2.92;;;;;;;18.98;100.00;97099.72;5099001;28;20582;-52
2022/10/29 02:33:16;;;;;;;9.85;2.78;;;;;;;18.47;100.00;97125.34;5099909;28;20063;-49
2022/10/29 02:35:46;;;;;;;4.47;2.60;;;;;;;18.53;100.00;97121.13;5101959;28;20200;-48
2022/10/29 02:38:14;;;;;;;8.83;3.13;;;;;;;18.36;100.00;97115.06;5105253;28;20090;-47
2022/10/29 02:40:42;;;;;;;8.40;3.15;;;;;;;18.18;100.00;97108.19;5099561;28;20079;-46
2022/10/29 02:43:10;;;;;;;10.90;3.20;;;;;;;17.86;100.00;97105.69;5103870;28;20106;-52
2022/10/29 02:45:39;;;;;;;7.60;2.95;;;;;;;17.72;100.00;97099.22;5100532;28;20106;-47
2022/10/29 02:48:07;;;;;;;6.40;3.03;;;;;;;17.64;100.00;97100.09;5102306;28;20079;-46
2022/10/29 02:50:35;;;;;;;8.93;3.38;;;;;;;17.61;100.00;97091.59;5100352;28;20530;-47
2022/10/29 02:53:05;;;;;;;7.30;2.95;;;;;;;17.95;100.00;97101.97;5102174;28;20089;-45
2022/10/29 02:55:33;;;;;;;8.17;3.50;;;;;;;18.32;100.00;97092.41;5096942;28;20075;-47
2022/10/29 02:58:02;;;;;;;6.80;3.40;;;;;;;18.21;100.00;97089.16;5102209;28;20505;-46
2022/10/29 03:00:30;;;;;;;6.32;3.05;;;;;;;18.33;100.00;97086.88;5102881;28;20086;-48
2022/10/29 03:02:58;;;;;;;9.05;3.75;;;;;;;18.50;100.00;97083.06;5094838;28;20090;-50
2022/10/29 03:05:27;;;;;;;6.25;3.10;;;;;;;17.52;100.00;97082.81;5099955;28;20482;-46
2022/10/29 03:07:55;;;;;;;7.53;3.90;;;;;;;17.66;100.00;97089.25;5099993;28;20105;-46
2022/10/29 03:10:25;;;;;;;5.95;3.00;;;;;;;17.50;100.00;97090.16;5103884;28;20075;-44
2022/10/29 03:12:53;;;;;;;11.77;3.40;;;;;;;17.73;100.00;97082.22;5099624;28;20075;-47
2022/10/29 03:15:22;;;;;;;13.05;3.85;;;;;;;17.92;100.00;97089.81;5101082;28;20071;-47
2022/10/29 03:17:50;;;;;;;6.68;3.55;;;;;;;18.24;100.00;97090.63;5100017;28;20079;-45
2022/10/29 03:20:18;;;;;;;8.45;3.10;;;;;;;18.34;100.00;97090.38;5100529;28;20090;-49
2022/10/29 03:22:47;;;;;;;6.95;2.90;;;;;;;18.30;100.00;97089.91;5097456;28;20106;-48
2022/10/29 03:25:15;;;;;;;10.32;2.97;;;;;;;17.94;100.00;97078.97;5101626;28;20086;-48
2022/10/29 03:27:45;;;;;;;5.07;2.92;;;;;;;17.19;100.00;97085.56;5100892;28;20084;-48
2022/10/29 03:30:15;;;;;;;5.20;3.20;;;;;;;18.04;100.00;97092.94;5097915;28;20067;-47
2022/10/29 03:32:45;;;;;;;8.98;3.10;;;;;;;18.12;100.00;97090.19;5095588;28;20059;-46
2022/10/29 03:35:15;;;;;;;9.13;3.45;;;;;;;17.93;100.00;97090.66;5103363;28;20102;-45
2022/10/29 03:37:43;;;;;;;7.30;2.92;;;;;;;18.14;100.00;97090.03;5099334;28;20082;-46
2022/10/29 03:40:12;;;;;;;10.25;3.90;;;;;;;18.21;100.00;97101.66;5095468;28;20087;-45
2022/10/29 03:42:40;;;;;;;7.35;3.28;;;;;;;18.13;100.00;97107.03;5100360;28;20095;-48
2022/10/29 03:45:10;;;;;;;10.98;3.05;;;;;;;18.07;100.00;97089.91;5097927;28;20153;-48
2022/10/29 03:47:39;;;;;;;6.43;2.70;;;;;;;18.17;100.00;97097.66;5103066;28;20080;-44
2022/10/29 03:50:08;;;;;;;9.18;3.58;;;;;;;18.19;100.00;97093.00;5097617;28;20746;-46
2022/10/29 03:52:36;;;;;;;7.68;3.60;;;;;;;18.19;100.00;97088.47;5102242;28;20090;-43
2022/10/29 03:55:06;;;;;;;9.45;2.83;;;;;;;18.24;100.00;97086.13;5096001;28;20584;-43
2022/10/29 03:57:34;;;;;;;8.35;3.03;;;;;;;18.38;100.00;97094.38;5101884;28;20088;-43
2022/10/29 04:00:04;;;;;;;11.70;3.10;;;;;;;18.50;100.00;97095.59;5099521;28;20575;-46
2022/10/29 04:02:34;;;;;;;;;;;;;;;18.52;100.00;97082.91;5100081;28;20079;-46
2022/10/29 04:05:02;;;;;;;7.45;3.15;;;;;;;17.84;100.00;97081.84;5100264;28;20374;-44
2022/10/29 04:07:30;;;;;;;8.38;3.13;;;;;;;17.61;100.00;97087.09;5097144;28;20059;-49
2022/10/29 04:09:59;;;;;;;8.45;3.40;;;;;;;17.66;100.00;97082.09;5101954;28;20079;-45
2022/10/29 04:12:27;;;;;;;8.65;2.90;;;;;;;17.88;100.00;97091.16;5097121;28;20090;-45
2022/10/29 04:14:55;;;;;;;8.20;2.78;;;;;;;17.94;100.00;97094.97;5099998;28;20083;-46
2022/10/29 04:17:24;;;;;;;8.05;3.05;;;;;;;18.09;100.00;97103.06;5100844;28;20071;-48
2022/10/29 04:19:53;;;;;;;8.95;2.67;;;;;;;18.50;100.00;97109.78;5094134;28;20079;-45
2022/10/29 04:22:21;;;;;;;5.47;2.75;;;;;;;18.60;100.00;97101.53;5097711;28;20079;-45
2022/10/29 04:25:09;;;;;;;7.60;2.63;;;;;;;18.59;100.00;97099.06;5095420;28;20094;-46
2022/10/29 04:27:58;;;;;;;7.53;2.55;;;;;;;18.61;100.00;97097.84;5099711;28;20090;-45
2022/10/29 04:30:46;;;;;;;12.52;2.88;;;;;;;18.21;100.00;97101.66;5098093;28;20474;-47
2022/10/29 04:33:14;;;;;;;8.00;3.22;;;;;;;17.69;100.00;97099.59;5099233;28;20126;-45
2022/10/29 04:35:44;;;;;;;13.23;3.28;;;;;;;17.89;100.00;97097.31;5098752;28;20067;-43
2022/10/29 04:38:12;;;;;;;6.97;3.10;;;;;;;17.80;100.00;97093.88;5099734;28;20071;-49
2022/10/29 04:40:41;;;;;;;7.45;3.33;;;;;;;16.93;100.00;97103.59;5100612;28;20060;-43
2022/10/29 04:43:09;;;;;;;10.18;4.15;;;;;;;17.51;100.00;97092.63;5098926;28;20079;-44
2022/10/29 04:45:37;;;;;;;6.85;4.32;;;;;;;16.96;100.00;97092.63;5095455;28;20075;-47
2022/10/29 04:48:06;;;;;;;7.68;4.10;;;;;;;17.47;100.00;97091.31;5099926;28;20108;-49
2022/10/29 04:50:37;;;;;;;9.40;4.63;;;;;;;17.42;100.00;97093.69;5096763;28;20067;-46
2022/10/29 04:53:07;;;;;;;9.60;3.95;;;;;;;17.70;100.00;97085.22;5096143;28;20063;-48
2022/10/29 04:55:37;;;;;;;8.38;3.83;;;;;;;18.48;100.00;97086.97;5097000;28;20084;-43
2022/10/29 04:58:05;;;;;;;8.48;3.95;;;;;;;18.46;100.00;97081.78;5099545;28;20075;-43
2022/10/29 05:00:34;;;;;;;11.18;3.63;;;;;;;18.64;100.00;97084.13;5100193;28;20088;-47
2022/10/29 05:03:02;;;;;;;7.82;3.70;;;;;;;18.68;100.00;97080.09;5099354;28;20088;-44
2022/10/29 05:05:30;;;;;;;5.93;3.13;;;;;;;18.78;100.00;97074.53;5088657;28;20080;-45
2022/10/29 05:07:59;;;;;;;6.18;3.22;;;;;;;18.48;100.00;97081.63;5098397;28;20079;-44
2022/10/29 05:10:31;;;;;;;5.43;3.30;;;;;;;18.39;100.00;97083.50;5099770;28;20542;-48
2022/10/29 05:13:00;;;;;;;6.85;3.50;;;;;;;18.36;100.00;97088.38;5107614;28;20105;-43
2022/10/29 05:15:29;;;;;;;6.60;2.80;;;;;;;18.28;100.00;97086.59;5102217;28;20075;-46
2022/10/29 05:17:57;;;;;;;7.20;3.15;;;;;;;17.79;100.00;97082.38;5099971;28;20067;-46
2022/10/29 05:20:26;;;;;;;6.43;3.03;;;;;;;17.38;100.00;97080.84;5092347;28;20110;-44
2022/10/29 05:23:01;;;;;;;9.80;3.60;;;;;;;17.70;100.00;97074.56;5109927;28;20067;-47
2022/10/29 05:25:32;;;;;;;10.98;3.60;;;;;;;18.14;100.00;97085.53;5097014;28;20086;-44
2022/10/29 05:28:04;;;;;;;6.95;3.60;;;;;;;17.48;100.00;97090.34;5099667;28;20075;-44
2022/10/29 05:30:33;;;;;;;6.78;3.45;;;;;;;17.88;100.00;97085.00;5103867;28;20632;-50
2022/10/29 05:33:01;;;;;;;6.60;3.47;;;;;;;17.81;100.00;97092.03;5101621;28;20087;-47
2022/10/29 05:35:30;;;;;;;14.15;4.10;;;;;;;17.93;100.00;97093.31;5103285;28;20075;-47
2022/10/29 05:37:59;;;;;;;9.10;4.25;;;;;;;17.42;100.00;97095.53;5099158;28;20067;-45
2022/10/29 05:40:27;;;;;;;10.80;4.35;;;;;;;17.67;100.00;97086.41;5099311;28;20082;-46
2022/10/29 05:42:57;;;;;;;10.10;3.75;;;;;;;17.54;100.00;97088.78;5104217;28;20557;-49
2022/10/29 05:45:26;;;;;;;8.93;3.90;;;;;;;18.04;100.00;97082.25;5098254;28;20086;-47
2022/10/29 05:47:57;;;;;;;10.98;3.88;;;;;;;18.34;100.00;97090.38;5095996;28;20078;-47
2022/10/29 05:50:26;;;;;;;9.35;3.70;;;;;;;18.41;100.00;97080.66;5103217;28;20079;-49
2022/10/29 05:52:55;;;;;;;9.02;3.65;;;;;;;18.44;100.00;97088.31;5099113;28;20078;-50
2022/10/29 05:55:25;;;;;;;8.43;3.80;;;;;;;18.55;100.00;97093.25;5102845;28;20075;-49
2022/10/29 05:57:57;;;;;;;7.60;3.72;;;;;;;18.67;100.00;97089.13;5100927;28;20060;-45
2022/10/29 06:00:25;;;;;;;8.10;3.92;;;;;;;18.68;100.00;97085.44;5103503;28;20090;-46
2022/10/29 06:02:54;;;;;;;7.28;3.67;;;;;;;18.80;100.00;97093.91;5102656;28;20082;-43
2022/10/29 06:05:23;;;;;;;7.93;3.47;;;;;;;18.84;100.00;97095.19;5102655;28;20079;-48
2022/10/29 06:07:54;;;;;;;9.00;3.90;;;;;;;18.91;100.00;97095.28;5101932;28;20085;-47
2022/10/29 06:10:24;;;;;;;7.20;3.80;;;;;;;18.56;100.00;97110.94;5098806;28;20067;-43
2022/10/29 06:12:52;;;;;;;11.05;3.78;;;;;;;17.93;100.00;97107.50;5096049;28;20087;-45
2022/10/29 06:15:22;;;;;;;8.35;3.40;;;;;;;17.88;100.00;97115.19;5098723;28;20079;-46
2022/10/29 06:17:51;;;;;;;8.07;3.25;;;;;;;18.06;100.00;97108.75;5099636;28;20083;-46
2022/10/29 06:20:21;;;;;;;7.63;3.67;;;;;;;17.71;100.00;97113.56;5100413;28;20079;-51
2022/10/29 06:22:56;;;;;;;12.02;4.20;;;;;;;17.72;100.00;97120.56;5102300;28;20082;-44
2022/10/29 06:25:25;;;;;;;10.45;4.05;;;;;;;18.48;100.00;97116.34;5096101;28;20079;-46
2022/10/29 06:28:00;;;;;;;10.18;3.95;;;;;;;18.70;100.00;97110.13;5100189;28;20072;-46
2022/10/29 06:30:31;;;;;;;7.90;4.50;;;;;;;18.99;100.00;97116.59;5097090;28;20063;-48
2022/10/29 06:32:59;;;;;;;;;;;;;;;19.31;100.00;97114.63;5101203;28;20829;-47
2022/10/29 06:35:28;;;;;;;10.65;4.90;;;;;;;19.11;100.00;97127.69;5100533;28;19962;-46
2022/10/29 06:37:56;;;;;;;11.45;5.40;;;;;;;19.14;100.00;97124.66;5097984;28;20040;-47
2022/10/29 06:40:25;;;;;;;8.38;3.90;;;;;;;19.22;100.00;97135.25;5095601;28;20818;-48
2022/10/29 06:42:58;;;;;;;7.03;3.63;;;;;;;19.15;100.00;97129.81;5094065;28;20517;-44
2022/10/29 06:45:27;;;;;;;8.73;4.03;;;;;;;18.82;100.00;97131.94;5098732;28;20082;-48
2022/10/29 06:47:57;;;;;;;10.05;3.38;;;;;;;19.09;100.00;97119.84;5101717;28;20079;-49
2022/10/29 06:50:28;;;;;;;12.52;3.45;;;;;;;19.37;100.00;97117.41;5099309;28;20177;-43
2022/10/29 06:52:57;;;;;;;10.80;5.20;;;;;;;19.39;100.00;97112.69;5102934;28;20083;-46
2022/10/29 06:55:26;;;;;;;9.82;5.43;;;;;;;19.51;100.00;97120.25;5102426;28;20075;-46
2022/10/29 06:57:59;;;;;;;22.73;5.00;;;;;;;19.86;100.00;97118.69;5097189;28;20473;-43
2022/10/29 07:00:28;;;;;;;14.98;5.40;;;;;;;19.93;100.00;97119.63;5094031;28;20079;-45
2022/10/29 07:02:57;;;;;;;15.52;5.22;;;;;;;20.12;100.00;97123.53;5098718;28;20071;-51
2022/10/29 07:05:26;;;;;;;13.05;4.45;;;;;;;20.13;100.00;97120.69;5099150;28;20085;-48
2022/10/29 07:07:56;;;;;;;9.45;3.42;;;;;;;20.24;100.00;97122.03;5102029;28;20071;-45
2022/10/29 07:10:26;;;;;;;7.93;3.40;;;;;;;20.04;100.00;97124.47;5097883;28;20094;-46
2022/10/29 07:12:55;;;;;;;8.40;4.10;;;;;;;20.21;100.00;97117.06;5105347;28;20480;-46
2022/10/29 07:15:23;;;;;;;6.72;3.40;;;;;;;20.61;100.00;97121.00;5101560;28;20094;-48
2022/10/29 07:17:59;;;;;;;9.40;3.95;;;;;;;20.95;100.00;97110.56;5098291;28;20086;-46
2022/10/29 07:20:28;;;;;;;9.57;4.20;;;;;;;21.14;100.00;97111.75;5099166;28;20119;-45
2022/10/29 07:22:58;;;;;;;9.13;3.70;;;;;;;21.18;100.00;97115.69;5103271;28;20071;-43
2022/10/29 07:25:26;;;;;;;11.88;4.25;;;;;;;21.47;100.00;97118.22;5096581;28;21708;-47
2022/10/29 07:27:54;;;;;;;11.13;3.95;;;;;;;21.61;100.00;97121.78;5100408;28;20076;-44
2022/10/29 07:30:23;;;;;;;12.93;4.50;;;;;;;20.98;100.00;97120.91;5093738;28;20070;-49
2022/10/29 07:32:52;;;;;;;12.52;3.90;;;;;;;21.68;100.00;97119.97;5100596;28;20077;-47
2022/10/29 07:35:22;;;;;;;10.35;4.07;;;;;;;21.91;100.00;97116.13;5096866;28;20122;-47
2022/10/29 07:37:50;;;;;;;10.07;4.00;;;;;;;22.05;100.00;97120.53;5094042;28;20098;-45
2022/10/29 07:40:18;;;;;;;6.68;3.35;;;;;;;21.89;100.00;97123.59;5096669;28;20090;-43
2022/10/29 07:42:51;;;;;;;11.55;3.50;;;;;;;22.32;100.00;97126.03;5096595;28;20090;-53
2022/10/29 07:45:20;;;;;;;11.20;3.72;;;;;;;22.45;100.00;97123.38;5097960;28;20556;-52
2022/10/29 07:47:49;;;;;;;10.13;2.50;;;;;;;22.56;100.00;97121.97;5099846;28;20086;-47
2022/10/29 07:50:17;;;;;;;15.93;2.90;;;;;;;22.62;100.00;97130.03;5092581;28;20079;-53
2022/10/29 07:52:47;;;;;;;8.50;2.55;;;;;;;22.79;100.00;97126.97;5098752;28;20087;-48
2022/10/29 07:55:15;;;;;;;6.03;2.93;;;;;;;22.92;100.00;97129.66;5105422;28;20090;-45
2022/10/29 07:57:43;;;;;;;12.77;2.53;;;;;;;23.02;100.00;97138.19;5095436;28;20098;-47
2022/10/29 08:00:13;;;;;;;8.90;2.90;;;;;;;22.88;100.00;97137.31;5101089;28;20071;-49
2022/10/29 08:02:42;;;;;;;6.72;2.30;;;;;;;22.73;100.00;97133.97;5100376;28;20079;-44
2022/10/29 08:05:10;;;;;;;9.25;2.53;;;;;;;22.98;100.00;97131.53;5098581;28;20086;-50
2022/10/29 08:07:38;;;;;;;10.77;3.25;;;;;;;23.21;100.00;97128.44;5092784;28;20083;-49
2022/10/29 08:10:09;;;;;;;13.50;4.30;;;;;;;23.07;100.00;97124.09;5096515;28;20091;-46
2022/10/29 08:12:37;;;;;;;18.33;3.47;;;;;;;22.87;100.00;97119.50;5093628;28;20083;-47
2022/10/29 08:15:07;;;;;;;13.75;3.75;;;;;;;22.79;100.00;97125.09;5099686;28;20059;-50
2022/10/29 08:17:35;;;;;;;13.02;3.58;;;;;;;23.20;100.00;97126.78;5097541;28;20086;-43
2022/10/29 08:20:04;;;;;;;20.35;4.68;;;;;;;23.64;100.00;97111.78;5100708;28;20075;-48
2022/10/29 08:22:32;;;;;;;17.50;6.00;;;;;;;23.91;100.00;97120.66;5092400;28;20067;-49
2022/10/29 08:25:01;;;;;;;16.98;6.03;;;;;;;24.06;97.69;97121.22;5094827;28;20080;-49
2022/10/29 08:27:30;;;;;;;15.95;5.35;;;;;;;23.71;100.00;97112.66;5094685;28;20071;-48
2022/10/29 08:29:59;;;;;;;15.33;3.43;;;;;;;24.13;98.75;97108.53;5097283;28;20084;-45
2022/10/29 08:32:27;;;;;;;9.57;3.00;;;;;;;24.15;99.85;97111.00;5095836;28;20505;-49
2022/10/29 08:34:55;;;;;;;11.60;3.00;;;;;;;24.37;100.00;97108.84;5093934;28;20553;-45
2022/10/29 08:37:23;;;;;;;8.57;2.67;;;;;;;24.59;97.67;97114.75;5102231;28;20071;-48
2022/10/29 08:39:52;;;;;;;8.32;2.70;;;;;;;24.58;100.00;97110.41;5093529;28;20522;-49
2022/10/29 08:42:29;;;;;;;14.20;2.92;;;;;;;24.61;100.00;97105.41;5099653;28;20079;-52
2022/10/29 08:45:13;;;;;;;11.60;2.72;;;;;;;24.66;100.00;97103.91;5092900;28;20082;-47
2022/10/29 08:47:51;;;;;;;9.93;2.53;;;;;;;25.08;100.00;97099.63;5100707;28;20075;-43
2022/10/29 08:50:24;;;;;;;12.55;2.83;;;;;;;25.27;94.23;97100.53;5105802;28;20063;-44
2022/10/29 08:52:52;;;;;;;11.82;2.55;;;;;;;25.28;89.72;97107.59;5097612;28;20094;-47
2022/10/29 08:55:41;;;;;;;7.85;2.20;;;;;;;25.42;88.07;97111.00;5105307;28;20075;-48
2022/10/29 08:58:16;;;;;;;8.60;2.58;;;;;;;25.61;84.08;97118.06;5105111;28;20063;-51
2022/10/29 09:00:49;;;;;;;10.15;2.40;;;;;;;25.68;82.65;97121.53;5102796;28;20544;-48
2022/10/29 09:03:17;;;;;;;8.90;2.95;;;;;;;25.70;78.93;97122.09;5103766;28;20075;-48
2022/10/29 09:05:50;;;;;;;9.98;2.97;;;;;;;25.85;82.15;97118.28;5099807;28;20079;-47
2022/10/29 09:08:26;;;;;;;14.40;2.80;;;;;;;25.85;82.75;97116.38;5101188;28;20075;-46
2022/10/29 09:10:56;;;;;;;12.70;2.80;;;;;;;25.80;83.32;97122.44;5100618;28;20080;-47
2022/10/29 09:13:33;;;;;;;8.70;2.72;;;;;;;26.02;75.99;97122.00;5095811;28;20090;-48
2022/10/29 09:16:18;;;;;;;10.68;2.83;;;;;;;26.01;75.45;97120.34;5099282;28;20107;-46
2022/10/29 09:18:54;;;;;;;18.13;2.78;;;;;;;25.92;78.40;97119.00;5106127;28;20481;-50
2022/10/29 09:21:29;;;;;;;32.78;4.32;;;;;;;25.76;82.57;97118.53;5093965;28;20071;-50
2022/10/29 09:24:13;;;;;;;27.27;3.63;;;;;;;25.73;85.05;97121.66;5097592;28;20079;-44
2022/10/29 09:26:53;;;;;;;16.98;3.60;;;;;;;25.04;93.74;97120.84;5103764;28;20102;-43
2022/10/29 09:29:45;;;;;;;18.05;3.58;;;;;;;25.30;93.28;97117.13;5098747;28;20537;-45
2022/10/29 09:32:17;;;;;;;16.23;3.05;;;;;;;25.09;86.13;97112.91;5093450;28;20079;-47
2022/10/29 09:34:47;;;;;;;12.93;2.65;;;;;;;23.89;100.00;97120.88;5100637;28;20580;-46
2022/10/29 09:37:18;;;;;;;22.67;3.38;;;;;;;24.16;95.23;97116.19;5101392;28;20075;-46
2022/10/29 09:39:47;;;;;;;14.10;3.00;;;;;;;24.77;90.41;97116.69;5102946;28;20082;-44
2022/10/29 09:42:18;;;;;;;10.93;2.60;;;;;;;24.43;95.65;97117.94;5099298;28;20076;-47
2022/10/29 09:44:51;;;;;;;9.30;2.58;;;;;;;25.84;80.28;97108.50;5100943;28;20079;-43
2022/10/29 09:47:28;;;;;;;16.10;2.95;;;;;;;26.20;69.65;97115.75;5098831;28;20080;-53
2022/10/29 09:50:04;;;;;;;12.15;2.88;;;;;;;25.63;73.15;97117.84;5100036;28;20089;-48
2022/10/29 09:52:37;;;;;;;10.80;2.75;;;;;;;26.34;66.48;97109.09;5100721;28;20083;-51
2022/10/29 09:55:07;;;;;;;10.55;2.92;;;;;;;25.98;69.82;97112.69;5101900;28;20090;-46
2022/10/29 09:57:36;;;;;;;9.23;2.88;;;;;;;26.01;68.60;97104.13;5105212;28;20083;-48
2022/10/29 10:00:07;;;;;;;9.70;2.85;;;;;;;25.58;71.91;97107.72;5104369;28;20071;-53
2022/10/29 10:02:38;;;;;;;11.52;2.50;;;;;;;26.64;63.47;97098.31;5099433;28;20084;-50
2022/10/29 10:05:26;;;;;;;9.02;2.38;;;;;;;26.52;64.51;97095.56;5101283;28;20056;-47
2022/10/29 10:08:10;;;;;;;8.20;2.50;;;;;;;25.80;70.58;97097.31;5103461;28;20097;-48
2022/10/29 10:10:51;;;;;;;11.70;3.00;;;;;;;26.38;66.66;97094.06;5095727;28;20464;-47
2022/10/29 10:13:21;;;;;;;14.07;2.80;;;;;;;26.00;71.38;97092.50;5098646;28;20087;-49
2022/10/29 10:15:54;;;;;;;11.82;2.85;;;;;;;27.02;62.97;97086.25;5098234;28;20079;-45
2022/10/29 10:18:26;;;;;;;11.57;3.47;;;;;;;26.88;62.13;97082.13;5103227;28;20072;-43
2022/10/29 10:21:03;;;;;;;14.75;2.90;;;;;;;27.49;61.48;97074.63;5102794;28;20451;-50
2022/10/29 10:23:40;;;;;;;10.00;2.38;;;;;;;27.34;64.40;97067.81;5102639;28;20114;-45
2022/10/29 10:26:34;;;;;;;16.27;2.72;;;;;;;26.95;63.85;97074.72;5095310;28;20083;-46
2022/10/29 10:29:14;;;;;;;15.25;2.90;;;;;;;27.13;60.94;97068.41;5101475;28;20102;-53
2022/10/29 10:31:44;;;;;;;11.00;2.85;;;;;;;26.85;67.82;97069.06;5101785;28;20079;-45
2022/10/29 10:34:17;;;;;;;10.40;2.90;;;;;;;27.36;62.64;97064.88;5101816;28;20086;-49
2022/10/29 10:36:50;;;;;;;8.48;2.35;;;;;;;27.60;63.66;97066.50;5099717;28;20071;-45
2022/10/29 10:39:35;;;;;;;12.75;3.05;;;;;;;28.09;57.70;97063.44;5099896;28;20067;-45
2022/10/29 10:42:05;;;;;;;12.75;2.83;;;;;;;28.00;59.43;97062.19;5100185;28;20102;-48
2022/10/29 10:44:35;;;;;;;14.15;3.13;;;;;;;28.43;58.05;97063.59;5093368;28;20080;-51
2022/10/29 10:47:06;;;;;;;13.80;3.08;;;;;;;28.11;60.09;97054.03;5099686;28;20062;-43
2022/10/29 10:49:38;;;;;;;12.20;2.92;;;;;;;28.52;57.57;97049.34;5098300;28;20075;-45
2022/10/29 10:52:15;;;;;;;11.23;2.58;;;;;;;27.92;64.45;97044.41;5103475;28;20088;-43
2022/10/29 10:54:45;;;;;;;16.20;3.22;;;;;;;27.54;62.70;97048.47;5078420;28;20068;-47
2022/10/29 10:57:23;;;;;;;11.77;2.83;;;;;;;28.45;58.03;97045.16;5084217;28;20071;-53
2022/10/29 11:00:00;;;;;;;10.75;2.83;;;;;;;28.09;59.19;97041.75;5099700;28;20463;-48
2022/10/29 11:02:39;;;;;;;11.27;2.92;;;;;;;28.83;55.60;97041.72;5099511;28;20066;-49
2022/10/29 11:05:16;;;;;;;14.25;2.95;;;;;;;28.14;55.67;97031.81;5095994;28;20086;-49
2022/10/29 11:07:48;;;;;;;8.82;2.85;;;;;;;28.93;51.77;97033.75;5099675;28;20074;-48
2022/10/29 11:10:18;;;;;;;14.48;3.05;;;;;;;29.48;49.13;97024.78;5100371;28;20086;-50
2022/10/29 11:12:49;;;;;;;9.90;2.55;;;;;;;28.45;47.94;97031.59;5101605;28;20064;-46
2022/10/29 11:15:33;;;;;;;8.68;2.80;;;;;;;29.42;50.80;97016.81;5100845;28;20071;-45
2022/10/29 11:18:05;;;;;;;13.32;2.70;;;;;;;29.96;49.78;97025.13;5097587;28;20079;-50
2022/10/29 11:20:35;;;;;;;10.85;2.90;;;;;;;29.74;46.44;97015.09;5102057;28;20105;-49
2022/10/29 11:23:20;;;;;;;15.35;2.80;;;;;;;30.27;48.59;97013.53;5098697;28;20084;-47
2022/10/29 11:25:50;;;;;;;14.38;2.78;;;;;;;30.22;50.89;97009.94;5103158;28;21804;-44
2022/10/29 11:28:21;;;;;;;;;;;;;;;30.28;51.02;97014.34;5099284;28;20083;-47
2022/10/29 11:30:50;;;;;;;;;;;;;;;30.41;56.13;97002.22;5099855;28;19971;-42
2022/10/29 11:33:24;;;;;;;13.43;2.83;;;;;;;30.39;55.37;97004.41;5093902;28;19974;-47
2022/10/29 11:35:57;;;;;;;11.98;2.85;;;;;;;29.73;53.68;97007.19;5098573;28;20208;-48
2022/10/29 11:38:33;;;;;;;10.10;2.42;;;;;;;30.14;50.55;96996.75;5097464;28;20084;-46
2022/10/29 11:41:05;;;;;;;15.02;2.70;;;;;;;30.11;49.39;97003.56;5095889;28;20076;-44
2022/10/29 11:43:34;;;;;;;9.65;2.72;;;;;;;30.29;48.66;96998.88;5098646;28;20720;-49